sensor_id;sensor_type;location;lat;lon;timestamp;pressure;altitude;pressure_sealevel;temperature;humidity
50087;BME280;35967;50.718;7.050;2023-04-16T00:08:34;101128.81;;;8.86;100.00
50087;BME280;35967;50.718;7.050;2023-04-16T00:18:39;101127.13;;;8.83;100.00
50087;BME280;35967;50.718;7.050;2023-04-16T00:28:41;101131.38;;;8.86;100.00
50087;BME280;35967;50.718;7.050;2023-04-16T00:38:46;101128.00;;;8.80;100.00
50087;BME280;35967;50.718;7.050;2023-04-16T00:48:49;101129.78;;;8.72;100.00
50087;BME280;35967;50.718;7.050;2023-04-16T00:58:55;101132.38;;;8.69;100.00
50087;BME280;35967;50.718;7.050;2023-04-16T01:08:58;101131.50;;;8.65;100.00
50087;BME280;35967;50.718;7.050;2023-04-16T01:19:02;101132.28;;;8.78;100.00
50087;BME280;35967;50.718;7.050;2023-04-16T01:29:06;101142.53;;;8.81;100.00
50087;BME280;35967;50.718;7.050;2023-04-16T01:39:10;101151.16;;;8.71;100.00
50087;BME280;35967;50.718;7.050;2023-04-16T01:49:17;101157.91;;;8.89;100.00
50087;BME280;35967;50.718;7.050;2023-04-16T01:59:20;101155.47;;;8.66;100.00
50087;BME280;35967;50.718;7.050;2023-04-16T02:09:25;101160.63;;;8.66;100.00
50087;BME280;35967;50.718;7.050;2023-04-16T02:19:29;101164.00;;;8.71;100.00
50087;BME280;35967;50.718;7.050;2023-04-16T02:29:33;101152.00;;;8.75;100.00
50087;BME280;35967;50.718;7.050;2023-04-16T02:39:45;101147.78;;;8.63;100.00
50087;BME280;35967;50.718;7.050;2023-04-16T02:49:51;101151.19;;;8.68;100.00
50087;BME280;35967;50.718;7.050;2023-04-16T02:59:55;101160.63;;;8.61;100.00
50087;BME280;35967;50.718;7.050;2023-04-16T03:09:59;101161.50;;;8.63;100.00
50087;BME280;35967;50.718;7.050;2023-04-16T03:20:04;101158.00;;;8.72;100.00
50087;BME280;35967;50.718;7.050;2023-04-16T03:30:09;101162.31;;;8.68;100.00
50087;BME280;35967;50.718;7.050;2023-04-16T03:40:13;101169.16;;;8.65;100.00
50087;BME280;35967;50.718;7.050;2023-04-16T03:50:18;101172.66;;;8.55;100.00
50087;BME280;35967;50.718;7.050;2023-04-16T04:00:22;101181.22;;;8.50;100.00
50087;BME280;35967;50.718;7.050;2023-04-16T04:10:36;101180.34;;;8.55;100.00
50087;BME280;35967;50.718;7.050;2023-04-16T04:20:41;101185.47;;;8.61;100.00
50087;BME280;35967;50.718;7.050;2023-04-16T04:30:49;101195.75;;;8.56;100.00
50087;BME280;35967;50.718;7.050;2023-04-16T04:40:54;101200.91;;;8.48;100.00
50087;BME280;35967;50.718;7.050;2023-04-16T04:51:01;101201.75;;;8.46;100.00
50087;BME280;35967;50.718;7.050;2023-04-16T05:01:06;101204.31;;;8.50;100.00
50087;BME280;35967;50.718;7.050;2023-04-16T05:11:11;101223.13;;;8.52;100.00
50087;BME280;35967;50.718;7.050;2023-04-16T05:21:14;101221.44;;;8.48;100.00
50087;BME280;35967;50.718;7.050;2023-04-16T05:31:18;101231.66;;;8.58;100.00
50087;BME280;35967;50.718;7.050;2023-04-16T05:41:22;101234.25;;;8.53;100.00
50087;BME280;35967;50.718;7.050;2023-04-16T05:51:26;101244.53;;;8.48;100.00
50087;BME280;35967;50.718;7.050;2023-04-16T06:01:31;101259.06;;;8.52;100.00
50087;BME280;35967;50.718;7.050;2023-04-16T06:11:36;101264.13;;;8.65;100.00
50087;BME280;35967;50.718;7.050;2023-04-16T06:21:39;101253.91;;;8.56;100.00
50087;BME280;35967;50.718;7.050;2023-04-16T06:31:43;101271.00;;;8.57;100.00
50087;BME280;35967;50.718;7.050;2023-04-16T06:41:47;101281.28;;;8.60;100.00
50087;BME280;35967;50.718;7.050;2023-04-16T06:51:52;101299.22;;;8.64;100.00
50087;BME280;35967;50.718;7.050;2023-04-16T07:01:56;101287.22;;;8.66;100.00
50087;BME280;35967;50.718;7.050;2023-04-16T07:12:00;101300.91;;;8.65;100.00
50087;BME280;35967;50.718;7.050;2023-04-16T07:22:04;101308.63;;;8.67;100.00
50087;BME280;35967;50.718;7.050;2023-04-16T07:32:08;101318.84;;;8.70;100.00
50087;BME280;35967;50.718;7.050;2023-04-16T07:42:15;101325.69;;;8.74;100.00
50087;BME280;35967;50.718;7.050;2023-04-16T07:52:19;101335.94;;;8.76;100.00
50087;BME280;35967;50.718;7.050;2023-04-16T08:02:22;101347.78;;;9.08;100.00
50087;BME280;35967;50.718;7.050;2023-04-16T08:12:27;101347.00;;;8.96;100.00
50087;BME280;35967;50.718;7.050;2023-04-16T08:22:31;101357.25;;;8.98;100.00
50087;BME280;35967;50.718;7.050;2023-04-16T08:32:36;101366.69;;;8.96;100.00
50087;BME280;35967;50.718;7.050;2023-04-16T08:42:44;101368.31;;;9.09;100.00
50087;BME280;35967;50.718;7.050;2023-04-16T08:52:51;101378.59;;;9.09;100.00
50087;BME280;35967;50.718;7.050;2023-04-16T09:02:57;101388.00;;;9.10;100.00
50087;BME280;35967;50.718;7.050;2023-04-16T09:13:02;101387.13;;;9.18;100.00
50087;BME280;35967;50.718;7.050;2023-04-16T09:34:02;101387.97;;;9.27;100.00
50087;BME280;35967;50.718;7.050;2023-04-16T09:44:06;101405.94;;;9.26;100.00
50087;BME280;35967;50.718;7.050;2023-04-16T09:54:10;101414.44;;;9.42;100.00
50087;BME280;35967;50.718;7.050;2023-04-16T10:04:14;101412.69;;;9.47;100.00
50087;BME280;35967;50.718;7.050;2023-04-16T10:14:19;101421.91;;;9.82;100.00
50087;BME280;35967;50.718;7.050;2023-04-16T10:24:23;101427.72;;;10.10;100.00
50087;BME280;35967;50.718;7.050;2023-04-16T10:34:28;101428.56;;;10.13;100.00
50087;BME280;35967;50.718;7.050;2023-04-16T10:44:33;101433.66;;;10.16;100.00
50087;BME280;35967;50.718;7.050;2023-04-16T10:54:38;101433.66;;;10.17;100.00
50087;BME280;35967;50.718;7.050;2023-04-16T11:04:43;101423.25;;;10.33;100.00
50087;BME280;35967;50.718;7.050;2023-04-16T11:14:50;101427.47;;;10.45;100.00
50087;BME280;35967;50.718;7.050;2023-04-16T11:24:54;101426.63;;;10.43;100.00
50087;BME280;35967;50.718;7.050;2023-04-16T11:35:00;101423.81;;;10.64;100.00
50087;BME280;35967;50.718;7.050;2023-04-16T11:45:06;101424.41;;;10.91;100.00
50087;BME280;35967;50.718;7.050;2023-04-16T11:55:12;101425.19;;;10.99;100.00
50087;BME280;35967;50.718;7.050;2023-04-16T12:05:29;101430.47;;;10.88;99.63
50087;BME280;35967;50.718;7.050;2023-04-16T12:15:44;101436.38;;;10.95;99.34
50087;BME280;35967;50.718;7.050;2023-04-16T12:25:48;101439.84;;;10.93;98.42
50087;BME280;35967;50.718;7.050;2023-04-16T12:35:54;101443.00;;;11.16;98.42
50087;BME280;35967;50.718;7.050;2023-04-16T12:45:57;101441.44;;;11.03;96.76
50087;BME280;35967;50.718;7.050;2023-04-16T12:56:04;101442.19;;;11.13;96.37
50087;BME280;35967;50.718;7.050;2023-04-16T13:06:07;101431.72;;;11.27;95.95
50087;BME280;35967;50.718;7.050;2023-04-16T13:16:12;101420.72;;;11.78;95.86
50087;BME280;35967;50.718;7.050;2023-04-16T13:26:15;101426.28;;;12.09;91.21
50087;BME280;35967;50.718;7.050;2023-04-16T13:36:20;101417.66;;;12.10;91.45
50087;BME280;35967;50.718;7.050;2023-04-16T13:46:24;101415.22;;;12.03;90.48
50087;BME280;35967;50.718;7.050;2023-04-16T13:56:29;101412.53;;;12.09;89.22
50087;BME280;35967;50.718;7.050;2023-04-16T14:06:32;101414.06;;;12.21;87.56
50087;BME280;35967;50.718;7.050;2023-04-16T14:16:38;101409.75;;;12.20;86.53
50087;BME280;35967;50.718;7.050;2023-04-16T14:26:42;101414.16;;;12.14;84.76
50087;BME280;35967;50.718;7.050;2023-04-16T14:36:47;101412.34;;;12.68;87.14
50087;BME280;35967;50.718;7.050;2023-04-16T14:46:52;101425.97;;;12.29;84.50
50087;BME280;35967;50.718;7.050;2023-04-16T14:56:58;101419.16;;;12.24;84.64
50087;BME280;35967;50.718;7.050;2023-04-16T15:07:04;101418.13;;;12.34;84.67
50087;BME280;35967;50.718;7.050;2023-04-16T15:17:10;101421.03;;;12.15;82.94
50087;BME280;35967;50.718;7.050;2023-04-16T15:27:13;101416.66;;;12.19;80.25
50087;BME280;35967;50.718;7.050;2023-04-16T15:37:44;101413.34;;;12.11;82.07
50087;BME280;35967;50.718;7.050;2023-04-16T15:47:48;101411.91;;;12.44;80.69
50087;BME280;35967;50.718;7.050;2023-04-16T15:57:54;101409.09;;;12.58;77.33
50087;BME280;35967;50.718;7.050;2023-04-16T16:07:59;101406.19;;;12.77;76.91
50087;BME280;35967;50.718;7.050;2023-04-16T16:18:05;101403.97;;;12.55;78.05
50087;BME280;35967;50.718;7.050;2023-04-16T16:28:09;101408.19;;;12.61;79.50
50087;BME280;35967;50.718;7.050;2023-04-16T16:38:13;101409.22;;;12.51;88.81
50087;BME280;35967;50.718;7.050;2023-04-16T16:48:17;101408.34;;;12.53;90.43
50087;BME280;35967;50.718;7.050;2023-04-16T16:58:22;101414.56;;;12.41;91.49
50087;BME280;35967;50.718;7.050;2023-04-16T17:08:26;101424.03;;;12.41;92.60
50087;BME280;35967;50.718;7.050;2023-04-16T17:18:31;101430.34;;;12.24;92.61
50087;BME280;35967;50.718;7.050;2023-04-16T17:28:34;101428.19;;;11.96;94.82
50087;BME280;35967;50.718;7.050;2023-04-16T17:38:39;101437.81;;;11.85;96.18
50087;BME280;35967;50.718;7.050;2023-04-16T17:48:45;101449.16;;;11.73;97.39
50087;BME280;35967;50.718;7.050;2023-04-16T17:58:51;101456.91;;;11.72;97.93
50087;BME280;35967;50.718;7.050;2023-04-16T18:08:54;101463.78;;;11.71;98.57
50087;BME280;35967;50.718;7.050;2023-04-16T18:19:00;101458.59;;;11.74;98.68
50087;BME280;35967;50.718;7.050;2023-04-16T18:29:03;101477.56;;;11.70;98.84
50087;BME280;35967;50.718;7.050;2023-04-16T18:39:08;101491.34;;;11.69;97.42
50087;BME280;35967;50.718;7.050;2023-04-16T18:49:13;101495.66;;;11.67;97.35
50087;BME280;35967;50.718;7.050;2023-04-16T18:59:18;101501.72;;;11.64;98.90
50087;BME280;35967;50.718;7.050;2023-04-16T19:09:21;101519.13;;;11.47;100.00
50087;BME280;35967;50.718;7.050;2023-04-16T19:19:28;101519.97;;;11.47;100.00
50087;BME280;35967;50.718;7.050;2023-04-16T19:29:34;101520.13;;;11.35;100.00
50087;BME280;35967;50.718;7.050;2023-04-16T19:39:39;101515.00;;;12.58;100.00
50087;BME280;35967;50.718;7.050;2023-04-16T19:49:42;101526.69;;;12.26;100.00
50087;BME280;35967;50.718;7.050;2023-04-16T19:59:48;101535.41;;;11.50;100.00
50087;BME280;35967;50.718;7.050;2023-04-16T20:09:54;101533.03;;;11.33;100.00
50087;BME280;35967;50.718;7.050;2023-04-16T20:19:59;101532.97;;;11.36;100.00
50087;BME280;35967;50.718;7.050;2023-04-16T20:30:12;101536.56;;;11.23;100.00
50087;BME280;35967;50.718;7.050;2023-04-16T20:40:17;101537.41;;;11.27;100.00
50087;BME280;35967;50.718;7.050;2023-04-16T20:50:21;101534.03;;;11.20;100.00
50087;BME280;35967;50.718;7.050;2023-04-16T21:00:26;101526.28;;;11.22;100.00
50087;BME280;35967;50.718;7.050;2023-04-16T21:10:30;101535.88;;;11.07;100.00
50087;BME280;35967;50.718;7.050;2023-04-16T21:20:38;101526.44;;;11.08;100.00
50087;BME280;35967;50.718;7.050;2023-04-16T21:30:41;101518.69;;;11.09;100.00
50087;BME280;35967;50.718;7.050;2023-04-16T21:40:47;101532.50;;;10.99;100.00
50087;BME280;35967;50.718;7.050;2023-04-16T21:50:55;101532.56;;;10.96;100.00
50087;BME280;35967;50.718;7.050;2023-04-16T22:01:01;101529.97;;;10.97;100.00
50087;BME280;35967;50.718;7.050;2023-04-16T22:11:04;101534.28;;;10.94;100.00
50087;BME280;35967;50.718;7.050;2023-04-16T22:21:09;101539.44;;;10.91;100.00
50087;BME280;35967;50.718;7.050;2023-04-16T22:31:12;101538.69;;;10.81;100.00
50087;BME280;35967;50.718;7.050;2023-04-16T22:41:17;101541.31;;;10.76;100.00
50087;BME280;35967;50.718;7.050;2023-04-16T22:51:20;101549.00;;;10.78;100.00
50087;BME280;35967;50.718;7.050;2023-04-16T23:01:26;101539.63;;;10.70;100.00
50087;BME280;35967;50.718;7.050;2023-04-16T23:11:29;101526.84;;;10.61;100.00
50087;BME280;35967;50.718;7.050;2023-04-16T23:21:35;101535.34;;;10.72;100.00
50087;BME280;35967;50.718;7.050;2023-04-16T23:31:38;101543.97;;;10.68;100.00
50087;BME280;35967;50.718;7.050;2023-04-16T23:41:42;101531.13;;;10.64;100.00
50087;BME280;35967;50.718;7.050;2023-04-16T23:51:45;101534.53;;;10.64;100.00
